Time;durP1;ratioP1;P1;durP2;ratioP2;P2;SDS_P1;SDS_P2;PMS_P1;PMS_P2;Temp;Humidity;BMP_temperature;BMP_pressure;BME280_temperature;BME280_humidity;BME280_pressure;Samples;Min_cycle;Max_cycle;Signal;HPM_P1;HPM_P2
2023/01/13 00:00:18;;;;;;;11.60;6.73;;;;;;;-141.97;78.54;47832.38;5040870;28;20197;-82
2023/01/13 00:02:43;;;;;;;9.73;5.80;;;;;;;-141.97;78.17;47761.25;5042953;28;20162;-82
2023/01/13 00:05:09;;;;;;;11.10;6.03;;;;;;;-141.97;78.02;47834.31;5037580;28;20220;-82
2023/01/13 00:07:35;;;;;;;13.37;6.80;;;;;;;-141.97;78.10;47805.47;5039092;28;20173;-83
2023/01/13 00:10:00;;;;;;;12.97;6.80;;;;;;;-141.97;78.43;47799.72;5043933;28;20555;-83
2023/01/13 00:12:26;;;;;;;14.53;7.00;;;;;;;-141.97;78.61;47838.16;5033135;28;20253;-83
2023/01/13 00:14:51;;;;;;;12.87;6.63;;;;;;;-141.97;78.11;47811.25;5043637;28;20206;-82
2023/01/13 00:17:16;;;;;;;11.83;6.73;;;;;;;-141.97;78.33;47822.78;5042717;28;20174;-83
2023/01/13 00:19:43;;;;;;;12.13;6.50;;;;;;;-141.97;78.23;47863.13;5043065;28;20244;-83
2023/01/13 00:22:08;;;;;;;10.93;6.10;;;;;;;-141.97;78.25;47847.75;5038953;28;20170;-83
2023/01/13 00:24:33;;;;;;;11.00;6.27;;;;;;;-141.97;78.09;47768.94;5020203;28;20269;-83
2023/01/13 00:26:59;;;;;;;11.47;5.50;;;;;;;-141.97;78.19;47895.81;5044945;28;20177;-83
2023/01/13 00:29:24;;;;;;;12.23;6.03;;;;;;;-141.97;78.22;47843.91;5031181;28;20250;-82
2023/01/13 00:31:50;;;;;;;9.27;5.70;;;;;;;-141.97;78.65;47842.00;5031931;28;20170;-83
2023/01/13 00:34:15;;;;;;;10.33;5.53;;;;;;;-141.97;78.61;47784.34;5049356;28;20241;-83
2023/01/13 00:36:40;;;;;;;9.63;5.37;;;;;;;-141.97;79.21;47788.19;5029088;28;20563;-83
2023/01/13 00:39:06;;;;;;;10.00;4.90;;;;;;;-141.97;78.97;47734.34;5043508;28;20634;-83
2023/01/13 00:43:21;;;;;;;8.57;5.20;;;;;;;-141.97;78.92;47813.16;5040298;28;20174;-83
2023/01/13 00:44:16;;;;;;;11.27;5.80;;;;;;;-141.97;79.17;47874.69;5026548;28;20740;-82
2023/01/13 00:46:42;;;;;;;9.20;5.13;;;;;;;-141.97;79.00;47843.91;5006825;28;20635;-82
2023/01/13 00:49:07;;;;;;;9.67;5.00;;;;;;;-141.97;78.92;47843.91;5024619;28;20166;-83
2023/01/13 00:51:33;;;;;;;9.30;5.70;;;;;;;-141.97;78.91;47834.31;5026426;28;20556;-82
2023/01/13 00:53:59;;;;;;;10.00;5.40;;;;;;;-141.97;78.91;47872.75;5025789;28;20430;-83
2023/01/13 00:56:24;;;;;;;10.20;5.53;;;;;;;-141.97;78.62;47832.38;5032185;28;20225;-83
2023/01/13 00:58:50;;;;;;;8.57;5.20;;;;;;;-141.97;78.77;47788.19;5042049;28;20173;-83
2023/01/13 01:01:19;;;;;;;9.27;5.53;;;;;;;-141.97;79.20;47822.78;5036118;28;20168;-83
2023/01/13 01:03:49;;;;;;;11.33;5.57;;;;;;;-141.97;79.16;47792.03;5035227;28;20190;-82
2023/01/13 01:06:17;;;;;;;10.20;4.90;;;;;;;-141.97;78.97;47859.28;5034451;28;20612;-83
2023/01/13 01:08:43;;;;;;;10.20;5.43;;;;;;;-141.97;79.31;47834.31;5035343;28;20158;-82
2023/01/13 01:11:11;;;;;;;9.90;5.70;;;;;;;-141.97;79.10;47934.25;5037463;28;20200;-82
2023/01/13 01:13:37;;;;;;;11.47;5.83;;;;;;;-141.97;79.29;47822.78;5038647;28;20640;-83
2023/01/13 01:16:08;;;;;;;10.93;5.70;;;;;;;-141.97;78.67;47824.69;5042576;28;20178;-82
2023/01/13 01:18:36;;;;;;;9.30;5.37;;;;;;;-141.97;78.69;47805.47;5040386;28;20166;-83
2023/01/13 01:21:02;;;;;;;9.70;5.50;;;;;;;-141.97;78.82;47797.78;5039469;28;20194;-83
2023/01/13 01:23:28;;;;;;;10.30;5.37;;;;;;;-141.97;79.14;47911.19;5038926;28;20166;-83
2023/01/13 01:25:58;;;;;;;8.43;5.17;;;;;;;-141.97;78.74;47803.56;5019424;28;20233;-83
2023/01/13 01:28:24;;;;;;;10.93;5.43;;;;;;;-141.97;78.99;47849.69;5019097;28;20560;-82
2023/01/13 01:30:50;;;;;;;10.47;5.60;;;;;;;-141.97;79.50;47861.22;5038289;28;20165;-83
2023/01/13 01:33:15;;;;;;;11.00;5.77;;;;;;;-141.97;79.26;47857.38;5039053;28;20158;-83
2023/01/13 01:35:41;;;;;;;8.13;5.10;;;;;;;-141.97;78.97;47857.38;5039024;28;20193;-83
2023/01/13 01:38:07;;;;;;;8.93;4.90;;;;;;;-141.97;79.03;47853.53;5038565;28;20154;-83
2023/01/13 01:40:32;;;;;;;9.43;5.00;;;;;;;-141.97;78.55;47845.84;5037942;28;20169;-82
2023/01/13 01:45:42;;;;;;;9.63;5.60;;;;;;;-141.97;78.55;47832.38;5036506;28;20201;-83
2023/01/13 01:48:09;;;;;;;8.07;4.93;;;;;;;-141.97;78.47;47868.91;5036906;28;20405;-83
2023/01/13 01:50:35;;;;;;;7.53;4.00;;;;;;;-141.97;78.22;47840.06;5037393;28;20166;-82
2023/01/13 01:53:22;;;;;;;7.73;4.87;;;;;;;-141.97;78.02;47853.53;5047772;28;20166;-82
2023/01/13 01:55:47;;;;;;;7.70;4.20;;;;;;;-141.97;77.44;47882.38;5051674;28;20162;-83
2023/01/13 01:58:29;;;;;;;8.40;4.30;;;;;;;-141.97;77.70;47951.56;5045066;28;20189;-83
2023/01/13 02:00:54;;;;;;;8.30;4.60;;;;;;;-141.97;78.08;47899.66;5041328;28;20169;-83
2023/01/13 02:03:20;;;;;;;8.93;4.60;;;;;;;-141.97;76.99;47859.28;5044422;28;20412;-83
2023/01/13 02:05:45;;;;;;;7.83;4.43;;;;;;;-141.97;76.76;47865.06;5018041;28;20202;-83
2023/01/13 02:08:12;;;;;;;6.00;3.67;;;;;;;-141.97;76.48;47868.91;5036539;28;20170;-84
2023/01/13 02:10:39;;;;;;;6.40;3.80;;;;;;;-141.97;76.89;47809.31;5043008;28;20213;-83
2023/01/13 02:13:09;;;;;;;7.17;4.03;;;;;;;-141.97;77.26;47907.34;5037755;28;20177;-83
2023/01/13 02:15:50;;;;;;;7.33;4.03;;;;;;;-141.97;76.79;47822.78;5036347;28;20273;-83
2023/01/13 02:18:21;;;;;;;7.90;3.90;;;;;;;-141.97;77.23;47861.22;5037603;28;20181;-84
2023/01/13 02:21:08;;;;;;;7.57;4.50;;;;;;;-141.97;77.02;47830.47;5036223;28;20165;-83
2023/01/13 02:26:38;;;;;;;7.43;3.47;;;;;;;-141.97;76.67;47866.97;5036313;28;20636;-83
2023/01/13 02:32:40;;;;;;;7.40;4.10;;;;;;;-141.97;76.67;47830.47;5037828;28;20423;-83
2023/01/13 02:35:17;;;;;;;5.53;3.20;;;;;;;-141.97;76.98;47857.38;5019225;28;20909;-83
2023/01/13 02:37:43;;;;;;;5.90;3.63;;;;;;;-141.97;76.82;47801.63;5019263;28;20170;-84
2023/01/13 02:40:44;;;;;;;6.90;3.77;;;;;;;-141.97;76.95;47822.78;5018912;28;20439;-83
2023/01/13 02:46:16;;;;;;;6.27;3.70;;;;;;;-141.97;77.11;47855.44;4955970;29;20479;-83
2023/01/13 02:48:45;;;;;;;7.47;3.87;;;;;;;-141.97;77.17;47817.00;4955908;29;20450;-83
2023/01/13 02:51:15;;;;;;;6.73;3.70;;;;;;;-141.97;76.83;47826.63;4956100;29;20276;-83
2023/01/13 02:53:47;;;;;;;6.17;3.70;;;;;;;-141.97;76.39;47851.59;4939061;29;20757;-83
2023/01/13 02:56:15;;;;;;;6.87;3.67;;;;;;;-141.97;76.34;47845.84;4954380;29;20432;-83
2023/01/13 02:58:44;;;;;;;6.20;3.60;;;;;;;-141.97;76.02;47859.28;4954637;28;20227;-83
2023/01/13 03:01:09;;;;;;;6.03;3.23;;;;;;;-141.97;75.50;47807.41;4954059;29;20401;-83
2023/01/13 03:03:35;;;;;;;6.37;3.70;;;;;;;-141.97;75.55;47817.00;4954013;29;20638;-84
2023/01/13 03:06:28;;;;;;;7.57;3.77;;;;;;;-141.97;75.44;47865.06;4940907;29;20208;-82
2023/01/13 03:09:43;;;;;;;6.90;3.70;;;;;;;-141.97;75.66;47853.53;4954762;29;20176;-83
2023/01/13 03:12:16;;;;;;;6.23;3.77;;;;;;;-141.97;75.99;47876.59;4897398;29;20653;-83
2023/01/13 03:14:56;;;;;;;5.77;3.70;;;;;;;-141.97;76.15;47838.16;4897323;29;20274;-83
2023/01/13 03:17:48;;;;;;;6.20;3.63;;;;;;;-141.97;76.08;47834.31;4896819;29;20806;-83
2023/01/13 03:20:22;;;;;;;5.23;3.27;;;;;;;-141.97;75.98;47830.47;4973972;28;20895;-83
2023/01/13 03:22:59;;;;;;;6.63;3.83;;;;;;;-141.97;75.98;47866.97;4972843;28;20196;-83
2023/01/13 03:25:33;;;;;;;6.17;4.20;;;;;;;-141.97;75.67;47855.44;4972680;28;20512;-83
2023/01/13 03:28:04;;;;;;;7.03;4.03;;;;;;;-141.97;75.77;47832.38;4972689;28;20482;-83
2023/01/13 03:30:47;;;;;;;6.77;3.87;;;;;;;-141.97;75.98;47834.31;4972612;28;20422;-83
2023/01/13 03:33:35;;;;;;;7.57;4.17;;;;;;;-141.97;75.99;47818.94;4961141;28;20187;-83
2023/01/13 03:36:07;;;;;;;8.43;4.60;;;;;;;-141.97;76.10;47861.22;4972551;28;20251;-83
2023/01/13 03:38:37;;;;;;;7.13;3.73;;;;;;;-141.97;76.47;47842.00;4974231;28;20570;-83
2023/01/13 03:41:12;;;;;;;7.03;3.87;;;;;;;-141.97;76.56;47849.69;4974578;28;20168;-83
2023/01/13 03:47:01;;;;;;;8.53;4.33;;;;;;;-141.97;77.13;47834.31;4975259;28;20170;-83
2023/01/13 03:49:38;;;;;;;7.67;4.47;;;;;;;-141.97;77.37;47928.50;5028511;28;20520;-83
2023/01/13 03:52:08;;;;;;;14.00;7.17;;;;;;;-141.97;77.37;47886.22;5034793;28;20423;-83
2023/01/13 03:54:57;;;;;;;24.57;12.77;;;;;;;-141.97;77.71;47893.91;5034453;28;20521;-83
2023/01/13 03:57:29;;;;;;;14.20;7.80;;;;;;;-141.97;77.65;47822.78;5034670;28;20720;-83
2023/01/13 03:59:59;;;;;;;9.10;5.50;;;;;;;-141.97;78.16;47805.47;5035728;28;20443;-83
2023/01/13 04:02:42;;;;;;;9.73;5.73;;;;;;;-141.97;78.54;47820.84;5035776;28;20178;-83
2023/01/13 04:05:09;;;;;;;9.93;5.50;;;;;;;-141.97;78.32;47859.28;5035037;28;20194;-83
2023/01/13 04:07:43;;;;;;;10.50;5.97;;;;;;;-141.97;78.22;47849.69;5034682;28;20427;-83
2023/01/13 04:10:10;;;;;;;9.23;5.43;;;;;;;-141.97;77.99;47807.41;5033258;28;20462;-83
2023/01/13 04:13:00;;;;;;;9.73;5.20;;;;;;;-141.97;77.78;47815.09;5018020;28;20413;-83
2023/01/13 04:15:28;;;;;;;10.27;5.30;;;;;;;-141.97;78.15;47788.19;5035559;28;20181;-83
2023/01/13 04:18:00;;;;;;;8.80;5.50;;;;;;;-141.97;78.00;47818.94;5035355;28;20415;-83
2023/01/13 04:20:25;;;;;;;8.97;5.40;;;;;;;-141.97;78.16;47891.97;5035140;28;20409;-83
2023/01/13 04:22:51;;;;;;;9.90;5.53;;;;;;;-141.97;77.76;47849.69;5033510;28;20466;-83
2023/01/13 04:25:16;;;;;;;12.00;6.50;;;;;;;-141.97;77.87;47780.47;5033327;28;20198;-83
2023/01/13 04:27:41;;;;;;;15.90;7.73;;;;;;;-141.97;77.79;47884.28;5034195;28;20163;-83
2023/01/13 04:30:07;;;;;;;15.03;7.53;;;;;;;-141.97;77.89;47857.38;5034487;28;20174;-83
2023/01/13 04:32:33;;;;;;;9.43;5.47;;;;;;;-141.97;78.16;47799.72;5047490;28;20186;-83
2023/01/13 04:34:58;;;;;;;8.53;5.20;;;;;;;-141.97;78.44;47849.69;5043278;28;20166;-83
2023/01/13 04:37:24;;;;;;;11.90;5.40;;;;;;;-141.97;78.42;47793.94;5023582;28;20170;-83
2023/01/13 04:39:49;;;;;;;9.87;5.70;;;;;;;-141.97;79.12;47826.63;5023480;28;20170;-84
2023/01/13 04:42:14;;;;;;;10.93;6.00;;;;;;;-141.97;79.18;47849.69;5041276;28;20162;-83
2023/01/13 04:44:40;;;;;;;13.33;7.37;;;;;;;-141.97;78.97;47842.00;5032365;28;20202;-83
2023/01/13 04:47:05;;;;;;;22.83;10.97;;;;;;;-141.97;79.06;47830.47;5051360;28;20185;-83
2023/01/13 04:49:32;;;;;;;15.83;8.20;;;;;;;-141.97;79.17;47834.31;5047060;28;20162;-84
2023/01/13 04:51:57;;;;;;;13.50;7.53;;;;;;;-141.97;79.48;47761.25;5037607;28;20177;-84
2023/01/13 04:54:22;;;;;;;15.87;7.00;;;;;;;-141.97;79.43;47826.63;5043845;28;20226;-84
2023/01/13 04:56:48;;;;;;;12.50;6.47;;;;;;;-141.97;80.27;47840.06;5027877;28;20207;-84
2023/01/13 04:59:13;;;;;;;11.90;7.30;;;;;;;-141.97;80.92;47836.22;5025516;28;20178;-84
2023/01/13 05:01:39;;;;;;;13.17;7.03;;;;;;;-141.97;81.08;47832.38;5037927;28;20228;-84
2023/01/13 05:04:05;;;;;;;15.23;7.83;;;;;;;-141.97;80.72;47780.47;5037857;28;20273;-83
2023/01/13 05:06:31;;;;;;;15.80;7.83;;;;;;;-141.97;81.09;47815.09;5036415;28;20226;-84
2023/01/13 05:08:57;;;;;;;16.67;7.90;;;;;;;-141.97;80.71;47805.47;5035487;28;20429;-84
2023/01/13 05:16:59;;;;;;;15.87;8.27;;;;;;;-141.97;80.84;47857.38;5034236;28;20439;-84
2023/01/13 05:19:43;;;;;;;22.20;13.83;;;;;;;-141.97;80.33;47865.06;5034376;28;20404;-84
2023/01/13 05:27:38;;;;;;;32.17;17.07;;;;;;;-141.97;80.61;47857.38;4993732;28;20481;-84
2023/01/13 05:30:05;;;;;;;43.17;25.83;;;;;;;-141.97;80.89;47822.78;4993033;28;20274;-83
2023/01/13 05:32:30;;;;;;;34.07;18.13;;;;;;;-141.97;80.42;47828.53;4992699;28;20167;-84
2023/01/13 05:34:56;;;;;;;46.97;26.10;;;;;;;-141.97;80.73;47765.09;4993044;28;20214;-83
2023/01/13 05:37:22;;;;;;;132.67;60.80;;;;;;;-141.97;80.62;47838.16;4992715;28;20187;-84
2023/01/13 05:45:16;;;;;;;24.57;15.53;;;;;;;-141.97;80.81;47843.91;4992320;28;20481;-84
2023/01/13 05:47:41;;;;;;;24.70;16.17;;;;;;;-141.97;80.79;47853.53;4992289;28;20297;-84
2023/01/13 05:50:08;;;;;;;21.80;11.83;;;;;;;-141.97;80.38;47840.06;4991785;28;20772;-84
2023/01/13 05:52:33;;;;;;;20.63;10.70;;;;;;;-141.97;80.17;47851.59;4991938;28;20195;-85
2023/01/13 05:54:59;;;;;;;33.50;16.33;;;;;;;-141.97;80.47;47830.47;4992121;28;20478;-86
2023/01/13 05:57:24;;;;;;;45.27;24.43;;;;;;;-141.97;80.56;47765.09;4992153;28;20175;-84
2023/01/13 05:59:49;;;;;;;51.07;29.97;;;;;;;-141.97;80.99;47765.09;4991922;28;20227;-84
2023/01/13 06:02:15;;;;;;;38.03;22.27;;;;;;;-141.97;80.86;47865.06;5000090;28;20660;-84
2023/01/13 06:04:40;;;;;;;24.40;14.97;;;;;;;-141.97;80.36;47726.66;5033227;28;20210;-85
2023/01/13 06:07:06;;;;;;;28.23;17.00;;;;;;;-141.97;79.77;47857.38;5033539;28;20168;-85
2023/01/13 06:09:31;;;;;;;35.23;17.00;;;;;;;-141.97;79.92;47749.72;5011719;28;20599;-84
2023/01/13 06:11:56;;;;;;;30.97;16.40;;;;;;;-141.97;79.43;47770.88;5031165;28;20231;-85
2023/01/13 06:14:22;;;;;;;24.07;13.33;;;;;;;-141.97;78.83;47876.59;5033230;28;20166;-85
2023/01/13 06:16:47;;;;;;;21.53;11.90;;;;;;;-141.97;78.39;47786.25;5032063;28;20170;-85
2023/01/13 06:19:13;;;;;;;26.57;15.37;;;;;;;-141.97;78.13;47872.75;5033225;28;20162;-85
2023/01/13 06:21:39;;;;;;;34.60;17.50;;;;;;;-141.97;78.71;47793.94;5032542;28;20174;-85
2023/01/13 06:24:05;;;;;;;64.67;27.60;;;;;;;-141.97;78.22;47842.00;5032949;28;20205;-86
2023/01/13 06:26:37;;;;;;;67.03;35.23;;;;;;;-141.97;78.29;47815.09;5032559;28;20154;-86
2023/01/13 06:29:02;;;;;;;67.23;34.83;;;;;;;-141.97;78.26;47782.41;5032958;28;20253;-86
2023/01/13 06:31:29;;;;;;;82.37;42.10;;;;;;;-141.97;78.34;47838.16;5032620;28;20204;-86
2023/01/13 06:33:59;;;;;;;40.03;21.07;;;;;;;-141.97;78.18;47792.03;5032919;28;20251;-85
2023/01/13 06:36:30;;;;;;;16.37;9.40;;;;;;;-141.97;78.87;47767.03;5035610;28;20180;-86
2023/01/13 06:39:00;;;;;;;15.30;8.10;;;;;;;-141.97;79.29;47807.41;5032823;28;20623;-85
2023/01/13 06:44:13;;;;;;;14.63;8.13;;;;;;;-141.97;79.95;47817.00;5032749;28;20459;-86
2023/01/13 06:46:39;;;;;;;32.93;17.70;;;;;;;-141.97;78.98;47859.28;5032775;28;20416;-86
2023/01/13 06:49:06;;;;;;;67.00;35.37;;;;;;;-141.97;78.91;47876.59;5015136;28;20737;-86
2023/01/13 06:51:31;;;;;;;47.63;23.43;;;;;;;-141.97;78.57;47832.38;5015142;28;20205;-86
2023/01/13 06:53:56;;;;;;;45.80;23.47;;;;;;;-141.97;78.36;47853.53;5014088;28;20323;-86
2023/01/13 06:56:22;;;;;;;158.93;80.57;;;;;;;-141.97;77.79;47834.31;5014452;28;20170;-85
2023/01/13 06:58:47;;;;;;;192.30;94.60;;;;;;;-141.97;76.98;47890.06;5032133;28;20177;-86
2023/01/13 07:01:13;;;;;;;157.63;79.80;;;;;;;-141.97;77.32;47813.16;5014229;28;20162;-86
2023/01/13 07:03:39;;;;;;;111.53;51.33;;;;;;;-141.97;76.57;47790.09;5032135;28;20220;-86
2023/01/13 07:06:05;;;;;;;86.37;41.87;;;;;;;-141.97;76.37;47803.56;5014230;28;20193;-85
2023/01/13 07:08:30;;;;;;;55.60;29.13;;;;;;;-141.97;75.82;47853.53;5032126;28;20174;-86
2023/01/13 07:10:56;;;;;;;50.73;25.67;;;;;;;-141.97;75.26;47857.38;5031340;28;20166;-85
2023/01/13 07:16:07;;;;;;;40.97;21.10;;;;;;;-141.97;75.70;47859.28;5031691;28;20169;-85
2023/01/13 07:18:34;;;;;;;33.33;18.30;;;;;;;-141.97;75.39;47830.47;5032313;28;20172;-86
2023/01/13 07:21:01;;;;;;;54.10;24.93;;;;;;;-141.97;76.42;47826.63;5031942;28;20162;-87
2023/01/13 07:23:29;;;;;;;29.33;13.60;;;;;;;-141.97;76.70;47828.53;5013626;28;20178;-87
2023/01/13 07:25:58;;;;;;;17.27;9.70;;;;;;;-141.97;77.81;47824.69;5031469;28;20220;-85
2023/01/13 07:28:24;;;;;;;14.57;8.37;;;;;;;-141.97;79.55;47784.34;5031590;28;20249;-86
2023/01/13 07:30:50;;;;;;;21.33;11.67;;;;;;;-141.97;79.88;47907.34;5032258;28;20169;-85
2023/01/13 07:33:17;;;;;;;19.93;11.00;;;;;;;-141.97;78.75;47884.28;5036587;28;20182;-86
2023/01/13 07:35:43;;;;;;;32.80;17.37;;;;;;;-141.97;79.50;47715.13;5054356;28;20146;-86
2023/01/13 07:38:08;;;;;;;33.87;18.10;;;;;;;-141.97;78.89;47907.34;5048082;28;20174;-86
2023/01/13 07:40:34;;;;;;;44.57;23.47;;;;;;;-141.97;79.23;47755.50;5013877;28;20173;-85
2023/01/13 07:45:43;;;;;;;52.00;30.83;;;;;;;-141.97;81.22;47876.59;5031132;28;20224;-85
2023/01/13 07:48:09;;;;;;;52.90;29.77;;;;;;;-141.97;80.45;47799.72;5031327;28;20162;-86
2023/01/13 07:50:34;;;;;;;52.77;24.07;;;;;;;-141.97;79.01;47920.81;5032034;28;20232;-86
2023/01/13 07:53:00;;;;;;;63.80;33.57;;;;;;;-141.97;79.54;47834.31;5032048;28;20253;-86
2023/01/13 07:55:25;;;;;;;81.37;44.47;;;;;;;-141.97;79.25;47838.16;5014505;28;20170;-86
2023/01/13 07:57:51;;;;;;;56.57;30.83;;;;;;;-141.97;79.78;47811.25;5033104;28;20600;-86
2023/01/13 08:00:17;;;;;;;60.97;33.93;;;;;;;-141.97;80.22;47876.59;5013888;28;20264;-86
2023/01/13 08:02:42;;;;;;;58.00;32.07;;;;;;;-141.97;80.87;47845.84;5031232;28;20626;-85
2023/01/13 08:05:11;;;;;;;44.73;24.20;;;;;;;-141.97;80.22;47765.09;5031968;28;20193;-87
2023/01/13 08:07:36;;;;;;;42.50;20.70;;;;;;;-141.97;79.00;47832.38;5031853;28;20165;-85
2023/01/13 08:10:03;;;;;;;79.03;39.13;;;;;;;-141.97;78.87;47795.88;5012994;28;20209;-85
2023/01/13 08:15:12;;;;;;;74.97;36.50;;;;;;;-141.97;76.57;47868.91;5032267;28;20277;-86
2023/01/13 08:17:38;;;;;;;56.53;28.50;;;;;;;-141.97;75.78;47853.53;5013549;28;20642;-86
2023/01/13 08:20:04;;;;;;;44.37;24.10;;;;;;;-141.97;75.77;47795.88;5014091;28;20169;-85
2023/01/13 08:22:32;;;;;;;31.47;17.63;;;;;;;-141.97;75.17;47745.88;5031508;28;20249;-86
2023/01/13 08:24:58;;;;;;;36.10;19.40;;;;;;;-141.97;76.13;47936.19;5036222;28;20638;-87
2023/01/13 08:27:23;;;;;;;52.23;27.57;;;;;;;-141.97;76.52;47803.56;5036015;28;20154;-86
2023/01/13 08:29:48;;;;;;;26.13;14.23;;;;;;;-141.97;77.54;47790.09;5018412;28;20223;-87
2023/01/13 08:32:14;;;;;;;27.23;14.30;;;;;;;-141.97;77.88;47820.84;5036933;28;20603;-87
2023/01/13 08:34:39;;;;;;;25.70;14.17;;;;;;;-141.97;78.87;47857.38;5040809;28;20247;-88
2023/01/13 08:37:05;;;;;;;34.63;16.60;;;;;;;-141.97;78.58;47928.50;5027784;28;20170;-86
2023/01/13 08:39:30;;;;;;;55.30;31.53;;;;;;;-141.97;79.02;47813.16;5056316;28;20186;-86
2023/01/13 08:41:57;;;;;;;48.70;28.53;;;;;;;-141.97;80.31;47792.03;5057122;28;20187;-87
2023/01/13 08:44:26;;;;;;;48.37;27.43;;;;;;;-141.97;80.75;47838.16;5038887;28;20197;-87
2023/01/13 08:46:52;;;;;;;53.77;29.43;;;;;;;-141.97;80.27;47838.16;5037459;28;20277;-86
2023/01/13 08:49:18;;;;;;;77.87;36.97;;;;;;;-141.97;79.83;47938.09;5038746;28;20181;-86
2023/01/13 08:51:44;;;;;;;61.23;31.07;;;;;;;-141.97;81.28;47847.75;5036816;28;21025;-87
2023/01/13 08:54:10;;;;;;;72.03;36.87;;;;;;;-141.97;81.00;47857.38;5040302;28;20218;-87
2023/01/13 08:56:35;;;;;;;54.30;28.77;;;;;;;-141.97;79.87;47824.69;5027227;28;20174;-87
2023/01/13 08:59:01;;;;;;;42.93;22.17;;;;;;;-141.97;79.60;47820.84;5028048;28;20177;-87
2023/01/13 09:01:26;;;;;;;60.03;30.17;;;;;;;-141.97;78.43;47809.31;5025792;28;20170;-87
2023/01/13 09:03:52;;;;;;;52.70;26.20;;;;;;;-141.97;79.88;47842.00;5019327;28;20615;-86
2023/01/13 09:06:18;;;;;;;51.47;27.60;;;;;;;-141.97;79.27;47870.81;5036570;28;20174;-86
2023/01/13 09:08:44;;;;;;;73.90;35.97;;;;;;;-141.97;77.84;47849.69;5023469;28;20223;-86
2023/01/13 09:14:16;;;;;;;56.90;30.30;;;;;;;-141.97;77.91;47826.63;5036809;28;20239;-89
2023/01/13 09:16:42;;;;;;;45.50;24.30;;;;;;;-141.97;77.53;47951.56;5035680;28;20190;-86
2023/01/13 09:19:07;;;;;;;74.63;39.40;;;;;;;-141.97;76.46;47853.53;5036856;28;20165;-86
2023/01/13 09:21:33;;;;;;;70.40;39.33;;;;;;;-141.97;77.49;47797.78;5036063;28;20618;-87
2023/01/13 09:23:58;;;;;;;78.27;43.17;;;;;;;-141.97;77.26;47865.06;5040473;28;20252;-88
2023/01/13 09:26:23;;;;;;;70.40;40.97;;;;;;;-141.97;75.22;47830.47;5038758;28;20210;-85
2023/01/13 09:28:49;;;;;;;46.40;24.70;;;;;;;-141.97;74.87;47817.00;5039999;28;20813;-86
2023/01/13 09:31:14;;;;;;;38.17;20.30;;;;;;;-141.97;74.74;47820.84;5038041;28;20173;-86
2023/01/13 09:36:24;;;;;;;47.70;26.63;;;;;;;-141.97;75.12;47807.41;5033654;28;20169;-86
2023/01/13 09:38:49;;;;;;;51.57;23.97;;;;;;;-141.97;75.18;47820.84;5033252;28;20158;-85
2023/01/13 09:44:15;;;;;;;28.63;15.50;;;;;;;-141.97;75.04;47824.69;5033672;28;20300;-82
2023/01/13 09:46:48;;;;;;;34.10;17.20;;;;;;;-141.97;74.87;47834.31;5034619;28;20174;-84
2023/01/13 09:49:29;;;;;;;51.70;26.63;;;;;;;-141.97;75.77;47822.78;5035453;28;20612;-87
2023/01/13 09:52:21;;;;;;;46.13;22.93;;;;;;;-141.97;76.57;47815.09;5035349;28;20174;-83
2023/01/13 09:55:16;;;;;;;38.23;19.57;;;;;;;-141.97;77.31;47840.06;5035470;28;20229;-83
2023/01/13 09:57:41;;;;;;;29.47;15.70;;;;;;;-141.97;76.35;47845.84;4954232;28;20383;-83
2023/01/13 10:00:10;;;;;;;40.23;21.17;;;;;;;-141.97;76.09;47790.09;4954984;29;20677;-82
2023/01/13 10:02:46;;;;;;;31.13;16.40;;;;;;;-141.97;75.52;47838.16;4953868;29;20220;-83
2023/01/13 10:05:34;;;;;;;31.17;15.57;;;;;;;-141.97;74.92;47809.31;4952927;29;20685;-83
2023/01/13 10:08:10;;;;;;;32.97;15.17;;;;;;;-141.97;74.34;47770.88;4933482;29;20295;-82
2023/01/13 10:10:46;;;;;;;32.20;16.63;;;;;;;-141.97;73.83;47826.63;4933585;29;20166;-82
2023/01/13 10:13:25;;;;;;;30.43;15.90;;;;;;;-141.97;74.23;47776.63;4933868;29;20212;-83
2023/01/13 10:16:11;;;;;;;42.47;21.10;;;;;;;-141.97;73.83;47865.06;4936979;28;20189;-83
2023/01/13 10:19:13;;;;;;;40.43;19.53;;;;;;;-141.97;74.05;47822.78;4952841;29;20177;-83
2023/01/13 10:22:03;;;;;;;26.60;14.70;;;;;;;-141.97;73.99;47826.63;4960680;29;20188;-85
2023/01/13 10:24:59;;;;;;;31.23;16.27;;;;;;;-141.97;74.26;47853.53;4963891;29;20263;-83
2023/01/13 10:27:33;;;;;;;23.03;12.90;;;;;;;-141.97;72.78;47805.47;4936189;29;20312;-83
2023/01/13 10:30:09;;;;;;;26.40;14.33;;;;;;;-141.97;73.19;47843.91;4952560;29;20689;-82
2023/01/13 10:32:34;;;;;;;45.40;23.73;;;;;;;-141.97;72.63;47920.81;4952489;29;20176;-82
2023/01/13 10:35:01;;;;;;;42.37;22.07;;;;;;;-141.97;72.30;47845.84;5004589;28;20182;-82
2023/01/13 10:37:27;;;;;;;30.87;15.13;;;;;;;-141.97;72.14;47784.34;5031558;28;20318;-82
2023/01/13 10:40:00;;;;;;;38.97;19.67;;;;;;;-141.97;72.21;47782.41;5033087;28;20169;-82
2023/01/13 10:42:26;;;;;;;36.97;20.23;;;;;;;-141.97;71.28;47828.53;5034700;28;20166;-83
2023/01/13 10:44:54;;;;;;;32.03;16.73;;;;;;;-141.97;70.98;47788.19;5031676;28;20194;-83
2023/01/13 10:47:30;;;;;;;36.67;18.93;;;;;;;-141.97;70.18;47842.00;5031564;28;20186;-82
2023/01/13 10:50:01;;;;;;;38.93;22.27;;;;;;;-141.97;69.80;47820.84;5031798;28;20169;-82
2023/01/13 10:52:29;;;;;;;34.63;17.97;;;;;;;-141.97;69.13;47834.31;5031696;28;20162;-82
2023/01/13 10:54:55;;;;;;;35.70;19.40;;;;;;;-141.97;69.12;47838.16;5031093;28;20229;-83
2023/01/13 10:57:26;;;;;;;48.33;21.57;;;;;;;-141.97;68.96;47957.34;5030705;28;20177;-82
2023/01/13 10:59:52;;;;;;;27.60;14.40;;;;;;;-141.97;69.63;47859.28;5031375;28;20619;-82
2023/01/13 11:02:34;;;;;;;29.97;15.70;;;;;;;-141.97;69.14;47857.38;5032331;28;20165;-82
2023/01/13 11:05:23;;;;;;;29.90;15.43;;;;;;;-141.97;69.03;47849.69;5031650;28;20212;-83
2023/01/13 11:07:53;;;;;;;26.37;14.80;;;;;;;-141.97;68.71;47834.31;5031663;28;20177;-83
2023/01/13 11:10:27;;;;;;;31.93;17.73;;;;;;;-141.97;68.82;47907.34;5030240;28;20166;-82
2023/01/13 11:13:01;;;;;;;34.50;17.37;;;;;;;-141.97;69.01;47845.84;5031937;28;20177;-83
2023/01/13 11:15:56;;;;;;;36.37;18.23;;;;;;;-141.97;68.72;47805.47;5031689;28;20204;-83
2023/01/13 11:19:01;;;;;;;42.67;20.30;;;;;;;-141.97;69.14;47832.38;4933830;29;20674;-83
2023/01/13 11:22:01;;;;;;;46.23;22.47;;;;;;;-141.97;69.18;47822.78;4933517;29;20172;-83
2023/01/13 11:24:50;;;;;;;30.33;16.13;;;;;;;-141.97;69.47;47832.38;4876460;29;20742;-81
2023/01/13 11:27:33;;;;;;;23.80;14.13;;;;;;;-141.97;69.45;47803.56;4876595;29;20207;-84
2023/01/13 11:30:24;;;;;;;28.00;15.00;;;;;;;-141.97;69.86;47828.53;4876484;29;20200;-83
2023/01/13 11:33:03;;;;;;;34.87;18.30;;;;;;;-141.97;70.18;47915.03;4877116;29;20221;-83
2023/01/13 11:35:33;;;;;;;34.77;18.20;;;;;;;-141.97;70.58;47822.78;4875969;29;20259;-83
2023/01/13 11:38:18;;;;;;;32.13;16.43;;;;;;;-141.97;70.70;47815.09;4875451;29;20593;-85
2023/01/13 11:40:49;;;;;;;35.90;17.87;;;;;;;-141.97;71.01;47815.09;4875979;29;20168;-85
2023/01/13 11:43:32;;;;;;;31.87;15.47;;;;;;;-141.97;70.76;47820.84;4875497;29;20191;-84
2023/01/13 11:45:59;;;;;;;60.00;28.17;;;;;;;-141.97;71.35;47767.03;4874952;29;20195;-84
2023/01/13 11:48:34;;;;;;;38.37;17.90;;;;;;;-141.97;70.88;47772.78;4875123;29;20199;-84
2023/01/13 11:51:13;;;;;;;48.93;25.63;;;;;;;-141.97;70.14;47922.72;4875028;29;20177;-84
2023/01/13 11:53:51;;;;;;;27.07;14.93;;;;;;;-141.97;69.60;47843.91;4874935;29;20310;-84
2023/01/13 11:56:51;;;;;;;24.37;13.80;;;;;;;-141.97;69.86;47813.16;4962449;28;20199;-83
2023/01/13 11:59:44;;;;;;;29.27;15.70;;;;;;;-141.97;68.81;47803.56;4969456;28;20187;-84
2023/01/13 12:02:36;;;;;;;36.90;19.13;;;;;;;-141.97;68.42;47866.97;5023211;28;20185;-85
2023/01/13 12:05:16;;;;;;;27.20;13.87;;;;;;;-141.97;68.50;47803.56;5030403;28;21042;-83
2023/01/13 12:08:02;;;;;;;37.80;19.23;;;;;;;-141.97;68.88;47822.78;5030690;28;20177;-85
2023/01/13 12:10:42;;;;;;;23.97;13.60;;;;;;;-141.97;69.31;47853.53;5013064;28;20174;-84
2023/01/13 12:13:47;;;;;;;27.07;14.73;;;;;;;-141.97;69.96;47836.22;5030930;28;20161;-84